sensor_id;sensor_type;location;lat;lon;timestamp;pressure;altitude;pressure_sealevel;temperature;humidity
68376;BME280;55318;52.068;5.188;2023-03-18T00:01:32;100798.0;;;12.66;82.52
68376;BME280;55318;52.068;5.188;2023-03-18T00:03:08;100798.0;;;12.69;83.19
68376;BME280;55318;52.068;5.188;2023-03-18T00:04:45;100793.0;;;12.56;83.59
68376;BME280;55318;52.068;5.188;2023-03-18T00:07:57;100799.0;;;12.53;83.53
68376;BME280;55318;52.068;5.188;2023-03-18T00:09:33;100803.0;;;12.43;83.86
68376;BME280;55318;52.068;5.188;2023-03-18T00:11:11;100805.0;;;12.43;84.3
68376;BME280;55318;52.068;5.188;2023-03-18T00:12:49;100806.0;;;12.31;84.53
68376;BME280;55318;52.068;5.188;2023-03-18T00:16:04;100811.0;;;12.3;84.88
68376;BME280;55318;52.068;5.188;2023-03-18T00:17:41;100814.0;;;12.33;85.0
68376;BME280;55318;52.068;5.188;2023-03-18T00:19:17;100813.0;;;12.48;84.45
68376;BME280;55318;52.068;5.188;2023-03-18T00:22:29;100816.0;;;12.51;84.68
68376;BME280;55318;52.068;5.188;2023-03-18T00:24:07;100816.0;;;12.59;84.31
68376;BME280;55318;52.068;5.188;2023-03-18T00:25:46;100816.0;;;12.67;83.85
68376;BME280;55318;52.068;5.188;2023-03-18T00:27:22;100817.0;;;12.52;84.26
68376;BME280;55318;52.068;5.188;2023-03-18T00:30:37;100822.0;;;12.57;84.0
68376;BME280;55318;52.068;5.188;2023-03-18T00:32:14;100823.0;;;12.62;83.98
68376;BME280;55318;52.068;5.188;2023-03-18T00:33:50;100825.0;;;12.51;84.53
68376;BME280;55318;52.068;5.188;2023-03-18T00:37:03;100818.0;;;12.56;84.49
68376;BME280;55318;52.068;5.188;2023-03-18T00:38:40;100816.0;;;12.51;84.59
68376;BME280;55318;52.068;5.188;2023-03-18T00:40:17;100814.0;;;12.48;84.73
68376;BME280;55318;52.068;5.188;2023-03-18T00:43:31;100819.0;;;12.5;84.72
68376;BME280;55318;52.068;5.188;2023-03-18T00:45:08;100816.0;;;12.47;84.73
68376;BME280;55318;52.068;5.188;2023-03-18T00:46:45;100814.0;;;12.47;85.08
68376;BME280;55318;52.068;5.188;2023-03-18T00:48:23;100811.0;;;12.42;85.2
68376;BME280;55318;52.068;5.188;2023-03-18T00:51:36;100811.0;;;12.46;85.13
68376;BME280;55318;52.068;5.188;2023-03-18T00:53:12;100810.0;;;12.34;85.3
68376;BME280;55318;52.068;5.188;2023-03-18T00:54:49;100813.0;;;12.26;86.0
68376;BME280;55318;52.068;5.188;2023-03-18T00:58:04;100821.0;;;12.43;85.42
68376;BME280;55318;52.068;5.188;2023-03-18T00:59:40;100815.0;;;12.51;85.13
68376;BME280;55318;52.068;5.188;2023-03-18T01:01:17;100815.0;;;12.41;85.75
68376;BME280;55318;52.068;5.188;2023-03-18T01:02:53;100810.0;;;12.2;86.75
68376;BME280;55318;52.068;5.188;2023-03-18T01:06:09;100811.0;;;12.36;86.32
68376;BME280;55318;52.068;5.188;2023-03-18T01:07:46;100814.0;;;12.54;85.52
68376;BME280;55318;52.068;5.188;2023-03-18T01:09:22;100813.0;;;12.65;85.29
68376;BME280;55318;52.068;5.188;2023-03-18T01:12:35;100807.0;;;12.53;85.44
68376;BME280;55318;52.068;5.188;2023-03-18T01:14:11;100807.0;;;12.36;86.14
68376;BME280;55318;52.068;5.188;2023-03-18T01:15:47;100806.0;;;12.43;86.21
68376;BME280;55318;52.068;5.188;2023-03-18T01:19:00;100803.0;;;12.35;86.48
68376;BME280;55318;52.068;5.188;2023-03-18T01:20:36;100808.0;;;12.28;86.76
68376;BME280;55318;52.068;5.188;2023-03-18T01:22:13;100814.0;;;12.32;86.9
68376;BME280;55318;52.068;5.188;2023-03-18T01:23:49;100813.0;;;12.3;86.77
68376;BME280;55318;52.068;5.188;2023-03-18T01:27:01;100816.0;;;12.28;87.2
68376;BME280;55318;52.068;5.188;2023-03-18T01:28:38;100816.0;;;12.34;86.72
68376;BME280;55318;52.068;5.188;2023-03-18T01:30:15;100818.0;;;12.45;86.02
68376;BME280;55318;52.068;5.188;2023-03-18T01:33:28;100815.0;;;12.41;86.34
68376;BME280;55318;52.068;5.188;2023-03-18T01:35:05;100813.0;;;12.28;86.92
68376;BME280;55318;52.068;5.188;2023-03-18T01:36:41;100813.0;;;12.53;86.01
68376;BME280;55318;52.068;5.188;2023-03-18T01:39:54;100818.0;;;12.54;85.72
68376;BME280;55318;52.068;5.188;2023-03-18T01:41:30;100816.0;;;12.5;86.19
68376;BME280;55318;52.068;5.188;2023-03-18T01:43:13;100821.0;;;12.7;85.44
68376;BME280;55318;52.068;5.188;2023-03-18T01:45:13;100824.0;;;12.55;85.97
68376;BME280;55318;52.068;5.188;2023-03-18T01:46:51;100821.0;;;12.63;85.76
68376;BME280;55318;52.068;5.188;2023-03-18T01:50:11;100819.0;;;12.59;85.98
68376;BME280;55318;52.068;5.188;2023-03-18T01:51:51;100822.0;;;12.54;86.21
68376;BME280;55318;52.068;5.188;2023-03-18T01:53:37;100822.0;;;12.63;85.97
68376;BME280;55318;52.068;5.188;2023-03-18T01:55:18;100824.0;;;12.78;85.29
68376;BME280;55318;52.068;5.188;2023-03-18T01:58:37;100820.0;;;12.77;85.26
68376;BME280;55318;52.068;5.188;2023-03-18T02:00:20;100823.0;;;12.77;85.31
68376;BME280;55318;52.068;5.188;2023-03-18T02:02:01;100821.0;;;12.74;85.35
68376;BME280;55318;52.068;5.188;2023-03-18T02:03:40;100818.0;;;12.69;85.51
68376;BME280;55318;52.068;5.188;2023-03-18T02:06:58;100820.0;;;12.66;85.6
68376;BME280;55318;52.068;5.188;2023-03-18T02:08:37;100816.0;;;12.69;85.62
68376;BME280;55318;52.068;5.188;2023-03-18T02:10:18;100820.0;;;12.55;86.01
68376;BME280;55318;52.068;5.188;2023-03-18T02:13:34;100818.0;;;12.69;85.7
68376;BME280;55318;52.068;5.188;2023-03-18T02:15:15;100823.0;;;12.56;86.18
68376;BME280;55318;52.068;5.188;2023-03-18T02:16:58;100828.0;;;12.63;86.0
68376;BME280;55318;52.068;5.188;2023-03-18T02:18:42;100831.0;;;12.71;85.59
68376;BME280;55318;52.068;5.188;2023-03-18T02:20:32;100833.0;;;12.7;85.47
68376;BME280;55318;52.068;5.188;2023-03-18T02:24:07;100833.0;;;12.81;85.12
68376;BME280;55318;52.068;5.188;2023-03-18T02:25:58;100830.0;;;12.82;84.97
68376;BME280;55318;52.068;5.188;2023-03-18T02:27:39;100827.0;;;12.78;84.94
68376;BME280;55318;52.068;5.188;2023-03-18T02:29:18;100822.0;;;12.69;85.41
68376;BME280;55318;52.068;5.188;2023-03-18T02:30:58;100823.0;;;12.62;85.52
68376;BME280;55318;52.068;5.188;2023-03-18T02:34:16;100825.0;;;12.73;85.3
68376;BME280;55318;52.068;5.188;2023-03-18T02:35:57;100827.0;;;12.82;85.19
68376;BME280;55318;52.068;5.188;2023-03-18T02:37:38;100828.0;;;12.82;84.94
68376;BME280;55318;52.068;5.188;2023-03-18T02:39:15;100828.0;;;12.82;84.91
68376;BME280;55318;52.068;5.188;2023-03-18T02:42:29;100827.0;;;12.81;85.16
68376;BME280;55318;52.068;5.188;2023-03-18T02:44:07;100828.0;;;12.86;84.9
68376;BME280;55318;52.068;5.188;2023-03-18T02:45:51;100828.0;;;12.69;85.49
68376;BME280;55318;52.068;5.188;2023-03-18T02:47:37;100828.0;;;12.63;85.94
68376;BME280;55318;52.068;5.188;2023-03-18T02:50:54;100833.0;;;12.81;85.45
68376;BME280;55318;52.068;5.188;2023-03-18T02:52:30;100834.0;;;12.82;85.23
68376;BME280;55318;52.068;5.188;2023-03-18T02:54:09;100833.0;;;12.82;84.98
68376;BME280;55318;52.068;5.188;2023-03-18T02:57:23;100828.0;;;12.75;85.55
68376;BME280;55318;52.068;5.188;2023-03-18T02:58:59;100828.0;;;12.66;85.64
68376;BME280;55318;52.068;5.188;2023-03-18T03:00:35;100830.0;;;12.71;85.57
68376;BME280;55318;52.068;5.188;2023-03-18T03:02:12;100838.0;;;12.84;85.08
68376;BME280;55318;52.068;5.188;2023-03-18T03:05:26;100841.0;;;12.85;85.0
68376;BME280;55318;52.068;5.188;2023-03-18T03:07:01;100841.0;;;12.89;84.84
68376;BME280;55318;52.068;5.188;2023-03-18T03:08:38;100842.0;;;12.82;85.1
68376;BME280;55318;52.068;5.188;2023-03-18T03:11:51;100846.0;;;12.95;84.58
68376;BME280;55318;52.068;5.188;2023-03-18T03:13:27;100846.0;;;12.89;84.86
68376;BME280;55318;52.068;5.188;2023-03-18T03:15:05;100846.0;;;12.73;85.58
68376;BME280;55318;52.068;5.188;2023-03-18T03:18:17;100846.0;;;12.85;85.22
68376;BME280;55318;52.068;5.188;2023-03-18T03:19:53;100852.0;;;12.83;85.08
68376;BME280;55318;52.068;5.188;2023-03-18T03:21:30;100852.0;;;12.99;84.35
68376;BME280;55318;52.068;5.188;2023-03-18T03:23:08;100858.0;;;12.91;84.49
68376;BME280;55318;52.068;5.188;2023-03-18T03:26:23;100856.0;;;12.89;84.63
68376;BME280;55318;52.068;5.188;2023-03-18T03:27:59;100860.0;;;12.85;84.75
68376;BME280;55318;52.068;5.188;2023-03-18T03:29:35;100857.0;;;12.87;84.77
68376;BME280;55318;52.068;5.188;2023-03-18T03:32:47;100860.0;;;12.79;85.1
68376;BME280;55318;52.068;5.188;2023-03-18T03:34:24;100860.0;;;12.73;85.3
68376;BME280;55318;52.068;5.188;2023-03-18T03:36:01;100865.0;;;12.56;86.23
68376;BME280;55318;52.068;5.188;2023-03-18T03:39:13;100860.0;;;12.51;86.39
68376;BME280;55318;52.068;5.188;2023-03-18T03:40:49;100867.0;;;12.63;86.24
68376;BME280;55318;52.068;5.188;2023-03-18T03:42:25;100866.0;;;12.63;85.79
68376;BME280;55318;52.068;5.188;2023-03-18T03:44:01;100865.0;;;12.67;85.84
68376;BME280;55318;52.068;5.188;2023-03-18T03:47:13;100864.0;;;12.73;85.34
68376;BME280;55318;52.068;5.188;2023-03-18T03:48:50;100867.0;;;12.74;85.19
68376;BME280;55318;52.068;5.188;2023-03-18T03:50:26;100865.0;;;12.85;84.6
68376;BME280;55318;52.068;5.188;2023-03-18T03:53:39;100867.0;;;13.06;83.82
68376;BME280;55318;52.068;5.188;2023-03-18T03:55:18;100868.0;;;13.09;83.39
68376;BME280;55318;52.068;5.188;2023-03-18T03:56:55;100871.0;;;13.12;83.16
68376;BME280;55318;52.068;5.188;2023-03-18T04:00:10;100866.0;;;13.07;83.83
68376;BME280;55318;52.068;5.188;2023-03-18T04:01:49;100869.0;;;12.99;84.21
68376;BME280;55318;52.068;5.188;2023-03-18T04:03:25;100871.0;;;13.03;84.07
68376;BME280;55318;52.068;5.188;2023-03-18T04:05:02;100874.0;;;12.99;84.23
68376;BME280;55318;52.068;5.188;2023-03-18T04:08:14;100877.0;;;13.12;83.86
68376;BME280;55318;52.068;5.188;2023-03-18T04:09:50;100874.0;;;13.05;84.26
68376;BME280;55318;52.068;5.188;2023-03-18T04:11:27;100873.0;;;13.0;84.58
68376;BME280;55318;52.068;5.188;2023-03-18T04:14:40;100876.0;;;13.06;84.26
68376;BME280;55318;52.068;5.188;2023-03-18T04:16:16;100878.0;;;13.04;84.23
68376;BME280;55318;52.068;5.188;2023-03-18T04:17:52;100873.0;;;13.1;84.2
68376;BME280;55318;52.068;5.188;2023-03-18T04:21:05;100875.0;;;13.04;84.42
68376;BME280;55318;52.068;5.188;2023-03-18T04:22:42;100871.0;;;13.04;84.38
68376;BME280;55318;52.068;5.188;2023-03-18T04:24:19;100876.0;;;12.93;84.61
68376;BME280;55318;52.068;5.188;2023-03-18T04:25:56;100880.0;;;13.02;84.53
68376;BME280;55318;52.068;5.188;2023-03-18T04:29:09;100877.0;;;12.95;84.92
68376;BME280;55318;52.068;5.188;2023-03-18T04:30:46;100875.0;;;12.67;85.73
68376;BME280;55318;52.068;5.188;2023-03-18T04:32:22;100878.0;;;12.89;85.92
68376;BME280;55318;52.068;5.188;2023-03-18T04:35:35;100877.0;;;13.0;85.6
68376;BME280;55318;52.068;5.188;2023-03-18T04:37:11;100877.0;;;12.86;86.66
68376;BME280;55318;52.068;5.188;2023-03-18T04:38:48;100880.0;;;12.97;86.18
68376;BME280;55318;52.068;5.188;2023-03-18T04:42:00;100878.0;;;12.82;86.88
68376;BME280;55318;52.068;5.188;2023-03-18T04:43:36;100880.0;;;12.87;87.03
68376;BME280;55318;52.068;5.188;2023-03-18T04:45:13;100881.0;;;12.9;86.88
68376;BME280;55318;52.068;5.188;2023-03-18T04:46:51;100882.0;;;12.82;87.17
68376;BME280;55318;52.068;5.188;2023-03-18T04:50:04;100881.0;;;12.79;87.55
68376;BME280;55318;52.068;5.188;2023-03-18T04:51:41;100881.0;;;12.87;87.25
68376;BME280;55318;52.068;5.188;2023-03-18T04:53:17;100887.0;;;12.79;87.92
68376;BME280;55318;52.068;5.188;2023-03-18T04:56:29;100887.0;;;12.83;88.18
68376;BME280;55318;52.068;5.188;2023-03-18T04:58:05;100884.0;;;12.88;87.91
68376;BME280;55318;52.068;5.188;2023-03-18T04:59:41;100885.0;;;12.92;87.88
68376;BME280;55318;52.068;5.188;2023-03-18T05:02:56;100892.0;;;12.82;88.31
68376;BME280;55318;52.068;5.188;2023-03-18T05:04:32;100894.0;;;12.91;88.02
68376;BME280;55318;52.068;5.188;2023-03-18T05:06:18;100901.0;;;12.97;87.8
68376;BME280;55318;52.068;5.188;2023-03-18T05:07:55;100900.0;;;12.87;88.18
68376;BME280;55318;52.068;5.188;2023-03-18T05:11:07;100899.0;;;13.05;87.51
68376;BME280;55318;52.068;5.188;2023-03-18T05:12:43;100907.0;;;13.01;87.74
68376;BME280;55318;52.068;5.188;2023-03-18T05:14:21;100911.0;;;13.03;87.84
68376;BME280;55318;52.068;5.188;2023-03-18T05:17:33;100917.0;;;13.08;87.75
68376;BME280;55318;52.068;5.188;2023-03-18T05:19:09;100916.0;;;13.1;87.42
68376;BME280;55318;52.068;5.188;2023-03-18T05:20:45;100921.0;;;13.05;88.03
68376;BME280;55318;52.068;5.188;2023-03-18T05:22:21;100924.0;;;13.11;87.77
68376;BME280;55318;52.068;5.188;2023-03-18T05:25:34;100925.0;;;13.14;87.72
68376;BME280;55318;52.068;5.188;2023-03-18T05:27:11;100927.0;;;13.09;88.06
68376;BME280;55318;52.068;5.188;2023-03-18T05:28:49;100922.0;;;13.22;87.46
68376;BME280;55318;52.068;5.188;2023-03-18T05:32:01;100922.0;;;13.27;87.49
68376;BME280;55318;52.068;5.188;2023-03-18T05:33:37;100919.0;;;13.21;87.52
68376;BME280;55318;52.068;5.188;2023-03-18T05:35:13;100923.0;;;13.08;88.35
68376;BME280;55318;52.068;5.188;2023-03-18T05:38:25;100925.0;;;13.13;88.65
68376;BME280;55318;52.068;5.188;2023-03-18T05:40:02;100926.0;;;13.14;88.72
68376;BME280;55318;52.068;5.188;2023-03-18T05:43:15;100925.0;;;13.2;88.73
68376;BME280;55318;52.068;5.188;2023-03-18T05:46:27;100925.0;;;13.04;89.66
68376;BME280;55318;52.068;5.188;2023-03-18T05:48:04;100930.0;;;13.14;89.48
68376;BME280;55318;52.068;5.188;2023-03-18T05:49:41;100928.0;;;13.18;89.3
68376;BME280;55318;52.068;5.188;2023-03-18T05:52:53;100930.0;;;13.06;89.76
68376;BME280;55318;52.068;5.188;2023-03-18T05:54:30;100931.0;;;13.07;89.69
68376;BME280;55318;52.068;5.188;2023-03-18T05:56:06;100934.0;;;13.03;90.14
68376;BME280;55318;52.068;5.188;2023-03-18T06:00:58;100934.0;;;13.25;89.08
68376;BME280;55318;52.068;5.188;2023-03-18T06:02:34;100940.0;;;13.31;88.78
68376;BME280;55318;52.068;5.188;2023-03-18T06:04:10;100946.0;;;13.23;89.07
68376;BME280;55318;52.068;5.188;2023-03-18T06:07:22;100947.0;;;13.31;88.85
68376;BME280;55318;52.068;5.188;2023-03-18T06:08:58;100941.0;;;13.31;88.9
68376;BME280;55318;52.068;5.188;2023-03-18T06:10:35;100940.0;;;13.38;88.7
68376;BME280;55318;52.068;5.188;2023-03-18T06:13:47;100936.0;;;13.39;88.73
68376;BME280;55318;52.068;5.188;2023-03-18T06:15:23;100936.0;;;13.34;88.7
68376;BME280;55318;52.068;5.188;2023-03-18T06:16:59;100942.0;;;13.23;89.46
68376;BME280;55318;52.068;5.188;2023-03-18T06:20:12;100947.0;;;13.44;88.83
68376;BME280;55318;52.068;5.188;2023-03-18T06:21:49;100948.0;;;13.42;88.8
68376;BME280;55318;52.068;5.188;2023-03-18T06:23:27;100955.0;;;13.42;88.61
68376;BME280;55318;52.068;5.188;2023-03-18T06:26:40;100957.0;;;13.51;88.23
68376;BME280;55318;52.068;5.188;2023-03-18T06:28:17;100960.0;;;13.37;88.66
68376;BME280;55318;52.068;5.188;2023-03-18T06:29:54;100963.0;;;13.26;89.34
68376;BME280;55318;52.068;5.188;2023-03-18T06:31:30;100964.0;;;13.18;90.05
68376;BME280;55318;52.068;5.188;2023-03-18T06:34:42;100969.0;;;13.32;89.43
68376;BME280;55318;52.068;5.188;2023-03-18T06:36:19;100980.0;;;13.45;88.86
68376;BME280;55318;52.068;5.188;2023-03-18T06:37:57;100980.0;;;13.41;88.97
68376;BME280;55318;52.068;5.188;2023-03-18T06:41:09;100977.0;;;13.34;89.4
68376;BME280;55318;52.068;5.188;2023-03-18T06:42:46;100976.0;;;13.21;90.1
68376;BME280;55318;52.068;5.188;2023-03-18T06:44:22;100970.0;;;13.27;90.06
68376;BME280;55318;52.068;5.188;2023-03-18T06:45:59;100971.0;;;13.28;89.99
68376;BME280;55318;52.068;5.188;2023-03-18T06:49:12;100975.0;;;13.21;90.68
68376;BME280;55318;52.068;5.188;2023-03-18T06:50:49;100975.0;;;13.31;89.92
68376;BME280;55318;52.068;5.188;2023-03-18T06:52:26;100978.0;;;13.43;89.4
68376;BME280;55318;52.068;5.188;2023-03-18T06:55:38;100983.0;;;13.45;89.44
68376;BME280;55318;52.068;5.188;2023-03-18T06:57:14;100985.0;;;13.5;89.1
68376;BME280;55318;52.068;5.188;2023-03-18T06:58:50;100986.0;;;13.37;89.68
68376;BME280;55318;52.068;5.188;2023-03-18T07:02:03;100990.0;;;13.25;90.28
68376;BME280;55318;52.068;5.188;2023-03-18T07:03:39;100995.0;;;13.27;90.3
68376;BME280;55318;52.068;5.188;2023-03-18T07:05:15;100999.0;;;13.3;90.31
68376;BME280;55318;52.068;5.188;2023-03-18T07:08:29;101003.0;;;13.26;90.98
68376;BME280;55318;52.068;5.188;2023-03-18T07:10:08;101006.0;;;13.37;90.7
68376;BME280;55318;52.068;5.188;2023-03-18T07:11:53;101007.0;;;13.42;89.95
68376;BME280;55318;52.068;5.188;2023-03-18T07:13:29;101015.0;;;13.47;89.74
68376;BME280;55318;52.068;5.188;2023-03-18T07:16:42;101011.0;;;13.54;89.32
68376;BME280;55318;52.068;5.188;2023-03-18T07:18:18;101011.0;;;13.56;89.2
68376;BME280;55318;52.068;5.188;2023-03-18T07:19:54;101007.0;;;13.86;89.27
68376;BME280;55318;52.068;5.188;2023-03-18T07:23:07;101010.0;;;14.03;89.27
68376;BME280;55318;52.068;5.188;2023-03-18T07:24:44;101011.0;;;14.26;88.45
68376;BME280;55318;52.068;5.188;2023-03-18T07:26:20;101006.0;;;14.57;86.07
68376;BME280;55318;52.068;5.188;2023-03-18T07:27:58;101009.0;;;14.79;83.57
68376;BME280;55318;52.068;5.188;2023-03-18T07:31:10;101019.0;;;15.12;82.75
68376;BME280;55318;52.068;5.188;2023-03-18T07:32:47;101021.0;;;15.34;82.11
68376;BME280;55318;52.068;5.188;2023-03-18T07:34:23;101020.0;;;15.54;81.19
68376;BME280;55318;52.068;5.188;2023-03-18T07:37:35;101027.0;;;15.72;80.24
68376;BME280;55318;52.068;5.188;2023-03-18T07:39:11;101030.0;;;15.77;78.09
68376;BME280;55318;52.068;5.188;2023-03-18T07:40:49;101030.0;;;15.82;79.88
68376;BME280;55318;52.068;5.188;2023-03-18T07:44:01;101027.0;;;15.81;78.05
68376;BME280;55318;52.068;5.188;2023-03-18T07:45:38;101028.0;;;15.74;79.09
68376;BME280;55318;52.068;5.188;2023-03-18T07:47:15;101027.0;;;15.8;78.16
68376;BME280;55318;52.068;5.188;2023-03-18T07:48:51;101026.0;;;15.92;78.08
68376;BME280;55318;52.068;5.188;2023-03-18T07:52:03;101027.0;;;16.21;77.3
68376;BME280;55318;52.068;5.188;2023-03-18T07:53:39;101028.0;;;16.23;77.05
68376;BME280;55318;52.068;5.188;2023-03-18T07:55:15;101035.0;;;16.5;75.92
68376;BME280;55318;52.068;5.188;2023-03-18T07:58:27;101040.0;;;16.59;74.24
68376;BME280;55318;52.068;5.188;2023-03-18T08:00:04;101046.0;;;16.84;73.33
68376;BME280;55318;52.068;5.188;2023-03-18T08:01:42;101047.0;;;16.87;73.03
68376;BME280;55318;52.068;5.188;2023-03-18T08:04:54;101046.0;;;17.03;72.41
68376;BME280;55318;52.068;5.188;2023-03-18T08:06:30;101050.0;;;16.86;71.72
68376;BME280;55318;52.068;5.188;2023-03-18T08:08:06;101047.0;;;16.97;72.36
68376;BME280;55318;52.068;5.188;2023-03-18T08:09:42;101044.0;;;16.96;72.44
68376;BME280;55318;52.068;5.188;2023-03-18T08:12:55;101045.0;;;16.71;71.91
68376;BME280;55318;52.068;5.188;2023-03-18T08:14:32;101045.0;;;16.95;72.09
68376;BME280;55318;52.068;5.188;2023-03-18T08:16:08;101037.0;;;17.31;71.47
68376;BME280;55318;52.068;5.188;2023-03-18T08:19:20;101039.0;;;17.36;71.97
68376;BME280;55318;52.068;5.188;2023-03-18T08:20:56;101037.0;;;17.55;71.13
68376;BME280;55318;52.068;5.188;2023-03-18T08:22:32;101036.0;;;17.82;70.55
68376;BME280;55318;52.068;5.188;2023-03-18T08:25:46;101035.0;;;17.7;69.49
68376;BME280;55318;52.068;5.188;2023-03-18T08:27:24;101034.0;;;17.89;69.92
68376;BME280;55318;52.068;5.188;2023-03-18T08:29:00;101028.0;;;17.7;69.27
68376;BME280;55318;52.068;5.188;2023-03-18T08:30:38;101028.0;;;17.77;68.37
68376;BME280;55318;52.068;5.188;2023-03-18T08:33:51;101024.0;;;17.54;68.8
68376;BME280;55318;52.068;5.188;2023-03-18T08:35:27;101021.0;;;17.53;68.8
68376;BME280;55318;52.068;5.188;2023-03-18T08:37:04;101021.0;;;17.27;70.37
68376;BME280;55318;52.068;5.188;2023-03-18T08:40:17;101027.0;;;17.18;70.58
68376;BME280;55318;52.068;5.188;2023-03-18T08:41:54;101028.0;;;17.06;70.72
68376;BME280;55318;52.068;5.188;2023-03-18T08:43:30;101028.0;;;16.93;71.22
68376;BME280;55318;52.068;5.188;2023-03-18T08:46:43;101033.0;;;16.59;72.49
68376;BME280;55318;52.068;5.188;2023-03-18T08:48:20;101033.0;;;16.5;72.94
68376;BME280;55318;52.068;5.188;2023-03-18T08:49:57;101034.0;;;16.72;74.53
68376;BME280;55318;52.068;5.188;2023-03-18T08:51:33;101041.0;;;16.84;73.05
68376;BME280;55318;52.068;5.188;2023-03-18T08:54:46;101040.0;;;16.75;72.66
68376;BME280;55318;52.068;5.188;2023-03-18T08:56:22;101045.0;;;16.73;72.31
68376;BME280;55318;52.068;5.188;2023-03-18T08:57:58;101049.0;;;16.53;73.36
68376;BME280;55318;52.068;5.188;2023-03-18T09:01:10;101047.0;;;16.5;72.81
68376;BME280;55318;52.068;5.188;2023-03-18T09:02:47;101051.0;;;16.39;73.47
68376;BME280;55318;52.068;5.188;2023-03-18T09:04:23;101051.0;;;16.4;73.77
68376;BME280;55318;52.068;5.188;2023-03-18T09:07:37;101051.0;;;16.37;74.69
68376;BME280;55318;52.068;5.188;2023-03-18T09:09:13;101058.0;;;16.53;75.24
68376;BME280;55318;52.068;5.188;2023-03-18T09:10:50;101057.0;;;16.7;75.41
68376;BME280;55318;52.068;5.188;2023-03-18T09:12:27;101056.0;;;16.84;74.3
68376;BME280;55318;52.068;5.188;2023-03-18T09:15:40;101056.0;;;16.87;73.49
68376;BME280;55318;52.068;5.188;2023-03-18T09:17:16;101050.0;;;17.11;73.11
68376;BME280;55318;52.068;5.188;2023-03-18T09:18:52;101055.0;;;17.18;72.38
68376;BME280;55318;52.068;5.188;2023-03-18T09:22:05;101058.0;;;17.2;72.48
68376;BME280;55318;52.068;5.188;2023-03-18T09:23:42;101064.0;;;17.23;72.55
68376;BME280;55318;52.068;5.188;2023-03-18T09:25:18;101056.0;;;17.2;71.88
68376;BME280;55318;52.068;5.188;2023-03-18T09:28:32;101061.0;;;17.2;71.52
68376;BME280;55318;52.068;5.188;2023-03-18T09:30:09;101062.0;;;17.14;71.44
68376;BME280;55318;52.068;5.188;2023-03-18T09:31:45;101067.0;;;17.02;72.19
68376;BME280;55318;52.068;5.188;2023-03-18T09:33:23;101080.0;;;16.95;72.36
68376;BME280;55318;52.068;5.188;2023-03-18T09:36:35;101082.0;;;16.88;72.91
68376;BME280;55318;52.068;5.188;2023-03-18T09:38:13;101086.0;;;16.79;72.67
68376;BME280;55318;52.068;5.188;2023-03-18T09:39:50;101089.0;;;16.71;73.66
68376;BME280;55318;52.068;5.188;2023-03-18T09:43:28;101093.0;;;16.7;73.94
68376;BME280;55318;52.068;5.188;2023-03-18T09:45:18;101097.0;;;16.75;73.92
68376;BME280;55318;52.068;5.188;2023-03-18T09:47:12;101103.0;;;16.52;73.73
68376;BME280;55318;52.068;5.188;2023-03-18T09:49:12;101102.0;;;16.5;74.56
68376;BME280;55318;52.068;5.188;2023-03-18T09:51:00;101100.0;;;16.7;75.02
68376;BME280;55318;52.068;5.188;2023-03-18T09:52:45;101093.0;;;16.48;74.58
68376;BME280;55318;52.068;5.188;2023-03-18T09:54:30;101090.0;;;16.59;75.11
68376;BME280;55318;52.068;5.188;2023-03-18T09:57:53;101083.0;;;16.72;73.11
68376;BME280;55318;52.068;5.188;2023-03-18T09:59:37;101089.0;;;16.52;73.58
68376;BME280;55318;52.068;5.188;2023-03-18T10:01:18;101086.0;;;16.71;73.56
68376;BME280;55318;52.068;5.188;2023-03-18T10:02:58;101086.0;;;16.82;72.72
68376;BME280;55318;52.068;5.188;2023-03-18T10:06:20;101088.0;;;16.89;72.23
68376;BME280;55318;52.068;5.188;2023-03-18T10:08:02;101085.0;;;16.93;72.19
68376;BME280;55318;52.068;5.188;2023-03-18T10:09:44;101087.0;;;16.86;71.41
68376;BME280;55318;52.068;5.188;2023-03-18T10:11:25;101087.0;;;16.86;72.36
68376;BME280;55318;52.068;5.188;2023-03-18T10:15:01;101087.0;;;16.95;72.7
68376;BME280;55318;52.068;5.188;2023-03-18T10:16:48;101086.0;;;17.11;71.77
68376;BME280;55318;52.068;5.188;2023-03-18T10:18:38;101077.0;;;17.2;71.22
68376;BME280;55318;52.068;5.188;2023-03-18T10:20:19;101075.0;;;17.5;70.84
68376;BME280;55318;52.068;5.188;2023-03-18T10:22:14;101070.0;;;17.52;70.25
68376;BME280;55318;52.068;5.188;2023-03-18T10:24:04;101076.0;;;17.61;71.36
68376;BME280;55318;52.068;5.188;2023-03-18T10:25:51;101073.0;;;17.5;68.91
68376;BME280;55318;52.068;5.188;2023-03-18T10:29:30;101076.0;;;17.66;68.97
68376;BME280;55318;52.068;5.188;2023-03-18T10:31:17;101073.0;;;17.78;68.27
68376;BME280;55318;52.068;5.188;2023-03-18T10:33:07;101077.0;;;17.41;67.86
68376;BME280;55318;52.068;5.188;2023-03-18T10:35:02;101081.0;;;17.21;69.3
68376;BME280;55318;52.068;5.188;2023-03-18T10:36:53;101085.0;;;17.14;70.2
68376;BME280;55318;52.068;5.188;2023-03-18T10:38:37;101084.0;;;17.27;70.12
68376;BME280;55318;52.068;5.188;2023-03-18T10:41:57;101088.0;;;17.22;69.52
68376;BME280;55318;52.068;5.188;2023-03-18T10:43:35;101093.0;;;17.11;69.83
68376;BME280;55318;52.068;5.188;2023-03-18T10:45:20;101090.0;;;17.05;69.8
68376;BME280;55318;52.068;5.188;2023-03-18T10:47:00;101093.0;;;17.06;70.11
68376;BME280;55318;52.068;5.188;2023-03-18T10:50:20;101094.0;;;17.0;71.39
68376;BME280;55318;52.068;5.188;2023-03-18T10:52:02;101093.0;;;16.96;70.87
68376;BME280;55318;52.068;5.188;2023-03-18T10:53:45;101094.0;;;16.95;71.84
68376;BME280;55318;52.068;5.188;2023-03-18T10:55:28;101098.0;;;16.71;71.72
68376;BME280;55318;52.068;5.188;2023-03-18T10:57:11;101093.0;;;16.78;71.72
68376;BME280;55318;52.068;5.188;2023-03-18T11:00:28;101087.0;;;16.66;72.14
68376;BME280;55318;52.068;5.188;2023-03-18T11:02:14;101091.0;;;16.71;72.72
68376;BME280;55318;52.068;5.188;2023-03-18T11:03:57;101093.0;;;16.79;72.24
68376;BME280;55318;52.068;5.188;2023-03-18T11:05:36;101090.0;;;16.72;72.0
68376;BME280;55318;52.068;5.188;2023-03-18T11:09:01;101092.0;;;16.87;73.37
68376;BME280;55318;52.068;5.188;2023-03-18T11:10:44;101092.0;;;16.98;72.94